Tallant, Oklahoma
Current Conditions -  °F | °C
As of 6:53 PM on Monday 26 Jan 2015 (Local Time) from KBVO Reporting Station
Clear Clear  
Wind Chill: 46°   Ceiling: Unl
Heat Index: 46°   Visibility: 10mi
Dew Point: 35°   Wind: 0mph
Humidity: 66%   Direction: NA
Pressure: 30.02"   Gusts: NA
Location:  36.5242°N, 96.1387°W
Report Text: KBVO 270053Z AUTO 00000KT 10SM CLR 08/02 A3002 RMK AO2 SLP166 T00780017
Loading
Personal Weather Stations






























Interactive Weather Map New forecast layout! Learn more

10-Day Weather Forecast

Advertisements
Track Severe Weather on mobile